Millington Regional Jetport Airport Millington US
ICAO: KNQA
IATA: NQA
Category: Medium
Scheduled Services: No

Elevation: 320 ft
TransAlt. 18000 ft.

Airport Communications:
MEMPHIS APP:119.1
AWOS 3:118.925
CTAF:120.25
MEMPHIS DEP:124.15
GND:121.375
TWR:120.25
UNICOM:122.95

KNQA Zoom In..

Runways:

(A) RW 04 length 8000 ft width 200 ft
---- / hdg 39

(B) RW 22 length 8000 ft width 200 ft
ILS 109.75 / hdg 219

Location; KNQA
Day. 29 / Time. 02.50 Zulu
* Altimeter: 29.95
* Temperature: 20° c. 68°f.
* Wind from: 210° Speed 09 kn.
Dewpoint: 17° c.
Visibility: 7 Statute Miles.
Clouds: Few 2500 ft.
Clouds: Scattered 3400 ft.
Clouds: Broken 4600 ft.
Conditions: Mist.

KNQA 290250Z 21009KT 7SM BR FEW025 SCT034 BKN046 20/17 A2995


Wind From 210°
Speed 09 kn.

 
 
jpsmedia worldairports.se 2020   terms of use